Weather at Posh Heliport

Public forecast

Using degrees Fahrenheit for public forecast. Weather courtesy of forecast.io.

Closest aviation weather report (METAR) to Posh Heliport

Closest report is Lehigh Valley International Airport, 5.0 nm (9.3 km) W. Retrieved 2021/06/13 17:51 UTC (35 minutes ago):

KABE 131751Z 10SM OVC043 23/17 A2990 RMK AO2 SLP124 T02280167 10233 20178 58009

Closest aviation forecast (TAF) to Posh Heliport

Closest forecast is Lehigh Valley International Airport, 5.0 nm (9.3 km) W. Retrieved 2021/06/13 18:30 UTC (0 seconds ago):

TAF KABE 131728Z 1318/1418 20005KT P6SM BKN040 FM140100 18004KT P6SM -SHRA OVC025 FM140700 15004KT 4SM -SHRA BR OVC015 FM141600 20004KT 6SM BR BKN010